createdAt,value
2023-04-16T00:00:35.342Z,18.20
2023-04-16T00:01:35.333Z,17.00
2023-04-16T00:02:35.501Z,18.00
2023-04-16T00:03:35.788Z,19.20
2023-04-16T00:04:35.386Z,19.80
2023-04-16T00:05:35.290Z,19.50
2023-04-16T00:06:35.280Z,20.50
2023-04-16T00:07:35.281Z,19.30
2023-04-16T00:08:35.248Z,17.30
2023-04-16T00:09:35.286Z,16.90
2023-04-16T00:10:35.239Z,18.70
2023-04-16T00:11:35.270Z,19.50
2023-04-16T00:12:35.216Z,18.60
2023-04-16T00:13:35.205Z,19.50
2023-04-16T00:14:35.191Z,19.50
2023-04-16T00:15:35.191Z,20.20
2023-04-16T00:16:35.216Z,19.60
2023-04-16T00:17:35.258Z,20.90
2023-04-16T00:18:35.155Z,19.50
2023-04-16T00:19:35.178Z,19.40
2023-04-16T00:20:35.121Z,19.40
2023-04-16T00:21:35.124Z,20.20
2023-04-16T00:22:35.105Z,19.90
2023-04-16T00:23:35.102Z,17.10
2023-04-16T00:24:35.100Z,17.20
2023-04-16T00:25:35.107Z,18.80
2023-04-16T00:26:35.062Z,17.90
2023-04-16T00:27:35.110Z,18.50
2023-04-16T00:28:35.049Z,18.80
2023-04-16T00:29:35.064Z,19.10
2023-04-16T00:30:35.031Z,18.30
2023-04-16T00:31:35.024Z,18.50
2023-04-16T00:32:35.038Z,18.90
2023-04-16T00:33:35.041Z,18.10
2023-04-16T00:34:35.028Z,18.50
2023-04-16T00:35:35.035Z,18.40
2023-04-16T00:36:35.003Z,16.50
2023-04-16T00:37:34.951Z,18.10
2023-04-16T00:38:34.928Z,18.50
2023-04-16T00:39:35.013Z,16.30
2023-04-16T00:40:34.905Z,17.50
2023-04-16T00:41:34.904Z,17.80
2023-04-16T00:42:35.021Z,17.00
2023-04-16T00:43:35.309Z,19.10
2023-04-16T00:44:34.855Z,19.70
2023-04-16T00:45:34.856Z,17.70
2023-04-16T00:46:34.932Z,18.30
2023-04-16T00:47:34.866Z,17.30
2023-04-16T00:48:34.824Z,16.70
2023-04-16T00:49:35.033Z,17.80
2023-04-16T00:50:34.790Z,18.30
2023-04-16T00:51:34.786Z,17.90
2023-04-16T00:52:34.834Z,16.60
2023-04-16T00:53:34.769Z,17.50
2023-04-16T00:54:34.755Z,17.70
2023-04-16T00:55:34.740Z,19.30
2023-04-16T00:56:34.718Z,18.30
2023-04-16T00:57:34.715Z,16.50
2023-04-16T00:58:34.747Z,19.60
2023-04-16T00:59:34.709Z,18.50
2023-04-16T01:00:34.680Z,18.90
2023-04-16T01:01:34.750Z,19.50
2023-04-16T01:02:34.877Z,19.30
2023-04-16T01:03:34.867Z,18.00
2023-04-16T01:04:34.663Z,19.60
2023-04-16T01:05:34.631Z,19.60
2023-04-16T01:06:34.621Z,19.20
2023-04-16T01:07:34.612Z,19.40
2023-04-16T01:08:34.672Z,19.00
2023-04-16T01:09:34.593Z,19.80
2023-04-16T01:10:34.575Z,17.80
2023-04-16T01:11:34.571Z,19.10
2023-04-16T01:12:34.559Z,20.00
2023-04-16T01:13:34.610Z,19.10
2023-04-16T01:14:34.540Z,17.80
2023-04-16T01:15:34.552Z,19.90
2023-04-16T01:16:34.520Z,19.00
2023-04-16T01:17:34.542Z,19.00
2023-04-16T01:18:34.501Z,19.10
2023-04-16T01:19:34.522Z,18.50
2023-04-16T01:20:34.468Z,18.60
2023-04-16T01:21:34.466Z,18.90
2023-04-16T01:22:34.479Z,20.30
2023-04-16T01:23:34.442Z,21.30
2023-04-16T01:24:34.435Z,19.60
2023-04-16T01:25:34.423Z,19.20
2023-04-16T01:26:34.399Z,21.40
2023-04-16T01:27:34.413Z,19.20
2023-04-16T01:28:34.415Z,20.60
2023-04-16T01:29:34.380Z,19.70
2023-04-16T01:30:34.378Z,21.40
2023-04-16T01:31:34.406Z,21.20
2023-04-16T01:32:34.368Z,21.70
2023-04-16T01:33:34.345Z,20.00
2023-04-16T01:34:34.355Z,20.90
2023-04-16T01:35:34.319Z,21.30
2023-04-16T01:36:34.320Z,21.50
2023-04-16T01:37:34.295Z,23.20
2023-04-16T01:38:34.322Z,22.10
2023-04-16T01:39:34.278Z,21.20
2023-04-16T01:40:34.277Z,22.30
2023-04-16T01:41:34.300Z,24.40
2023-04-16T01:42:34.243Z,20.60
2023-04-16T01:43:34.915Z,23.10
2023-04-16T01:44:34.225Z,22.70
2023-04-16T01:45:34.234Z,22.70
2023-04-16T01:46:34.260Z,21.80
2023-04-16T01:47:34.298Z,23.00
2023-04-16T01:48:34.208Z,23.60
2023-04-16T01:49:34.167Z,24.20
2023-04-16T01:50:34.191Z,24.50
2023-04-16T01:51:34.146Z,24.60
2023-04-16T01:52:34.139Z,25.20
2023-04-16T01:53:35.803Z,26.30
2023-04-16T01:54:34.114Z,26.00
2023-04-16T01:55:34.100Z,27.10
2023-04-16T01:56:34.135Z,24.20
2023-04-16T01:57:34.084Z,25.90
2023-04-16T01:58:34.100Z,25.70
2023-04-16T01:59:34.066Z,26.20
2023-04-16T02:00:34.065Z,26.30
2023-04-16T02:01:34.038Z,25.40
2023-04-16T02:02:34.188Z,25.10
2023-04-16T02:03:34.268Z,25.40
2023-04-16T02:04:34.003Z,25.50
2023-04-16T02:05:34.003Z,23.80
2023-04-16T02:06:33.989Z,25.60
2023-04-16T02:07:33.973Z,23.00
2023-04-16T02:08:33.962Z,24.00
2023-04-16T02:09:34.010Z,21.80
2023-04-16T02:10:33.943Z,23.30
2023-04-16T02:11:33.943Z,22.10
2023-04-16T02:12:33.913Z,22.50
2023-04-16T02:13:33.913Z,23.50
2023-04-16T02:14:34.005Z,21.90
2023-04-16T02:15:33.924Z,22.40
2023-04-16T02:16:33.914Z,22.60
2023-04-16T02:17:33.911Z,21.60
2023-04-16T02:18:33.850Z,22.30
2023-04-16T02:19:33.838Z,21.00
2023-04-16T02:20:33.826Z,21.30
2023-04-16T02:21:33.845Z,20.10
2023-04-16T02:22:33.856Z,21.10
2023-04-16T02:23:33.797Z,21.70
2023-04-16T02:24:33.786Z,20.80
2023-04-16T02:25:33.796Z,21.10
2023-04-16T02:26:33.756Z,20.60
2023-04-16T02:27:33.749Z,19.80
2023-04-16T02:28:33.741Z,21.10
2023-04-16T02:29:33.732Z,20.50
2023-04-16T02:30:33.713Z,20.90
2023-04-16T02:31:33.754Z,21.40
2023-04-16T02:32:33.727Z,20.70
2023-04-16T02:33:33.690Z,21.30
2023-04-16T02:34:33.681Z,21.50
2023-04-16T02:35:33.656Z,21.40
2023-04-16T02:36:33.688Z,20.80
2023-04-16T02:37:33.644Z,21.40
2023-04-16T02:38:33.637Z,22.20
2023-04-16T02:39:33.656Z,21.30
2023-04-16T02:40:33.610Z,21.70
2023-04-16T02:41:33.601Z,19.70
2023-04-16T02:42:33.587Z,22.10
2023-04-16T02:43:33.571Z,21.20
2023-04-16T02:44:33.582Z,21.50
2023-04-16T02:45:33.599Z,21.20
2023-04-16T02:46:33.547Z,21.10
2023-04-16T02:47:33.587Z,21.40
2023-04-16T02:48:33.574Z,22.10
2023-04-16T02:49:33.521Z,21.90
2023-04-16T02:50:33.534Z,21.50
2023-04-16T02:51:33.514Z,21.80
2023-04-16T02:52:33.490Z,22.10
2023-04-16T02:53:33.464Z,22.20
2023-04-16T02:54:33.509Z,21.40
2023-04-16T02:55:33.441Z,21.90
2023-04-16T02:56:33.444Z,22.50
2023-04-16T02:57:33.429Z,21.70
2023-04-16T02:58:33.436Z,22.20
2023-04-16T02:59:33.403Z,22.30
2023-04-16T03:00:33.439Z,21.70
2023-04-16T03:01:34.174Z,22.20
2023-04-16T03:02:33.567Z,22.60
2023-04-16T03:03:33.354Z,21.30
2023-04-16T03:04:33.404Z,21.40
2023-04-16T03:05:33.340Z,20.90
2023-04-16T03:06:33.368Z,21.20
2023-04-16T03:07:33.311Z,20.80
2023-04-16T03:08:33.314Z,21.60
2023-04-16T03:09:33.297Z,21.80
2023-04-16T03:10:33.341Z,20.60
2023-04-16T03:11:33.272Z,21.20
2023-04-16T03:12:33.319Z,22.50
2023-04-16T03:13:33.251Z,21.10
2023-04-16T03:14:33.244Z,22.30
2023-04-16T03:15:33.261Z,21.40
2023-04-16T03:16:40.242Z,22.30
2023-04-16T03:17:33.262Z,23.10
2023-04-16T03:18:33.484Z,22.20
2023-04-16T03:19:33.206Z,22.10
2023-04-16T03:20:33.172Z,22.60
2023-04-16T03:21:33.162Z,23.20
2023-04-16T03:22:33.210Z,22.40
2023-04-16T03:23:33.180Z,22.10
2023-04-16T03:24:33.173Z,20.80
2023-04-16T03:25:33.116Z,22.00
2023-04-16T03:26:33.105Z,23.10
2023-04-16T03:27:33.095Z,22.00
2023-04-16T03:28:33.126Z,24.40
2023-04-16T03:29:33.134Z,24.70
2023-04-16T03:30:33.065Z,23.20
2023-04-16T03:31:33.086Z,23.00
2023-04-16T03:32:33.094Z,23.90
2023-04-16T03:33:33.026Z,24.10
2023-04-16T03:34:33.027Z,23.40
2023-04-16T03:35:33.011Z,24.10
2023-04-16T03:36:33.012Z,25.20
2023-04-16T03:37:33.012Z,23.80
2023-04-16T03:38:32.978Z,24.90
2023-04-16T03:39:32.997Z,25.50
2023-04-16T03:40:32.968Z,24.50
2023-04-16T03:41:32.988Z,26.30
2023-04-16T03:42:32.968Z,25.80
2023-04-16T03:43:32.956Z,25.40
2023-04-16T03:44:32.912Z,25.80
2023-04-16T03:45:32.910Z,26.40
2023-04-16T03:46:33.014Z,26.60
2023-04-16T03:47:32.975Z,24.30
2023-04-16T03:48:32.913Z,24.50
2023-04-16T03:49:32.860Z,25.60
2023-04-16T03:50:32.864Z,25.80
2023-04-16T03:51:32.843Z,26.10
2023-04-16T03:52:32.861Z,26.10
2023-04-16T03:53:32.844Z,24.90
2023-04-16T03:54:32.830Z,26.10
2023-04-16T03:55:32.792Z,26.30
2023-04-16T03:56:32.793Z,22.50
2023-04-16T03:57:32.767Z,26.00
2023-04-16T03:58:32.804Z,26.20
2023-04-16T03:59:32.759Z,25.30
2023-04-16T04:00:32.792Z,25.80
2023-04-16T04:01:32.741Z,25.00
2023-04-16T04:02:32.880Z,26.50
2023-04-16T04:03:32.914Z,27.00
2023-04-16T04:04:32.799Z,26.10
2023-04-16T04:05:32.746Z,27.50
2023-04-16T04:06:32.688Z,26.60
2023-04-16T04:07:32.692Z,24.80
2023-04-16T04:08:32.721Z,26.30
2023-04-16T04:09:32.649Z,26.10
2023-04-16T04:10:32.639Z,26.70
2023-04-16T04:11:32.630Z,24.80
2023-04-16T04:12:32.614Z,27.00
2023-04-16T04:13:32.651Z,26.20
2023-04-16T04:14:32.624Z,26.90
2023-04-16T04:15:32.667Z,26.30
2023-04-16T04:16:32.677Z,24.40
2023-04-16T04:17:32.600Z,26.70
2023-04-16T04:18:32.716Z,26.60
2023-04-16T04:19:32.541Z,26.80
2023-04-16T04:20:32.542Z,26.20
2023-04-16T04:21:32.517Z,25.80
2023-04-16T04:22:32.512Z,25.60
2023-04-16T04:23:32.494Z,24.90
2023-04-16T04:24:32.531Z,27.50
2023-04-16T04:25:32.466Z,25.90
2023-04-16T04:26:32.540Z,24.90
2023-04-16T04:27:32.461Z,26.10
2023-04-16T04:28:32.444Z,25.50
2023-04-16T04:29:33.290Z,22.10
2023-04-16T04:30:32.433Z,24.40
2023-04-16T04:31:32.432Z,25.80
2023-04-16T04:32:32.450Z,26.70
2023-04-16T04:33:32.398Z,25.30
2023-04-16T04:34:32.426Z,25.20
2023-04-16T04:35:32.408Z,25.50
2023-04-16T04:36:32.389Z,26.60
2023-04-16T04:37:32.358Z,25.70
2023-04-16T04:38:32.325Z,26.90
2023-04-16T04:39:32.326Z,26.20
2023-04-16T04:40:32.352Z,26.10
2023-04-16T04:41:32.342Z,26.80
2023-04-16T04:42:32.326Z,25.90
2023-04-16T04:43:32.277Z,25.50
2023-04-16T04:44:32.266Z,25.30
2023-04-16T04:45:32.390Z,26.20
2023-04-16T04:46:32.250Z,25.40
2023-04-16T04:47:32.358Z,27.20
2023-04-16T04:48:32.275Z,26.70
2023-04-16T04:49:32.212Z,26.70
2023-04-16T04:50:32.207Z,25.80
2023-04-16T04:51:32.180Z,26.60
2023-04-16T04:52:32.244Z,25.80
2023-04-16T04:53:32.216Z,25.40
2023-04-16T04:54:32.151Z,27.00
2023-04-16T04:55:32.152Z,25.60
2023-04-16T04:56:32.129Z,27.10
2023-04-16T04:57:32.144Z,26.20
2023-04-16T04:58:32.147Z,25.40
2023-04-16T04:59:32.149Z,27.50
2023-04-16T05:00:32.094Z,26.10
2023-04-16T05:01:32.130Z,25.30
2023-04-16T05:02:32.144Z,23.80
2023-04-16T05:03:32.177Z,25.20
2023-04-16T05:04:32.067Z,26.70
2023-04-16T05:05:32.088Z,25.40
2023-04-16T05:06:32.042Z,27.10
2023-04-16T05:07:32.018Z,26.40
2023-04-16T05:08:32.007Z,25.90
2023-04-16T05:09:32.002Z,25.10
2023-04-16T05:10:31.993Z,26.20
2023-04-16T05:11:31.999Z,26.00
2023-04-16T05:12:31.971Z,26.00
2023-04-16T05:13:31.956Z,26.70
2023-04-16T05:14:31.952Z,26.30
2023-04-16T05:15:31.930Z,25.30
2023-04-16T05:16:31.972Z,26.40
2023-04-16T05:17:32.088Z,26.50
2023-04-16T05:18:31.923Z,25.80
2023-04-16T05:19:31.950Z,27.10
2023-04-16T05:20:31.884Z,27.10
2023-04-16T05:21:31.880Z,26.30
2023-04-16T05:22:31.868Z,26.60
2023-04-16T05:23:31.914Z,26.30
2023-04-16T05:24:31.867Z,25.20
2023-04-16T05:25:31.817Z,25.60
2023-04-16T05:26:31.844Z,26.10
2023-04-16T05:27:31.838Z,25.60
2023-04-16T05:28:31.800Z,24.80
2023-04-16T05:29:31.817Z,25.90
2023-04-16T05:30:31.867Z,24.60
2023-04-16T05:31:31.785Z,24.70
2023-04-16T05:32:31.777Z,25.50
2023-04-16T05:33:31.745Z,26.00
2023-04-16T05:34:31.757Z,25.20
2023-04-16T05:35:31.900Z,25.20
2023-04-16T05:36:31.760Z,25.80
2023-04-16T05:37:31.697Z,25.20
2023-04-16T05:38:31.685Z,25.10
2023-04-16T05:39:31.699Z,24.60
2023-04-16T05:40:31.718Z,26.10
2023-04-16T05:41:31.659Z,23.90
2023-04-16T05:42:31.710Z,26.20
2023-04-16T05:43:31.656Z,23.90
2023-04-16T05:44:31.636Z,26.20
2023-04-16T05:45:31.600Z,25.70
2023-04-16T05:46:31.712Z,23.60
2023-04-16T05:47:31.588Z,24.70
2023-04-16T05:48:31.572Z,25.20
2023-04-16T05:49:31.629Z,26.10
2023-04-16T05:50:31.551Z,25.00
2023-04-16T05:51:31.589Z,25.70
2023-04-16T05:52:31.535Z,24.50
2023-04-16T05:53:31.530Z,26.30
2023-04-16T05:54:31.548Z,27.10
2023-04-16T05:55:31.541Z,25.70
2023-04-16T05:56:31.504Z,26.30
2023-04-16T05:57:31.472Z,25.40
2023-04-16T05:58:31.531Z,26.40
2023-04-16T05:59:31.511Z,26.10
2023-04-16T06:00:31.452Z,25.30
2023-04-16T06:01:33.426Z,26.20
2023-04-16T06:02:31.558Z,25.90
2023-04-16T06:03:31.452Z,25.60
2023-04-16T06:04:31.470Z,25.60
2023-04-16T06:05:33.863Z,24.40
2023-04-16T06:06:31.487Z,24.70
2023-04-16T06:07:31.363Z,26.20
2023-04-16T06:08:31.406Z,25.70
2023-04-16T06:09:31.378Z,25.50
2023-04-16T06:10:31.359Z,27.00
2023-04-16T06:11:31.326Z,24.10
2023-04-16T06:12:31.371Z,26.30
2023-04-16T06:13:31.294Z,25.70
2023-04-16T06:14:31.290Z,25.80
2023-04-16T06:15:31.288Z,26.60
2023-04-16T06:16:31.313Z,24.40
2023-04-16T06:17:31.363Z,25.80
2023-04-16T06:18:31.272Z,25.80
2023-04-16T06:19:31.237Z,25.40
2023-04-16T06:20:31.230Z,25.10
2023-04-16T06:21:31.277Z,25.50
2023-04-16T06:22:31.209Z,25.30
2023-04-16T06:23:31.263Z,25.20
2023-04-16T06:24:31.193Z,25.00
2023-04-16T06:25:31.167Z,25.10
2023-04-16T06:26:31.153Z,26.60
2023-04-16T06:27:31.250Z,25.10
2023-04-16T06:28:31.881Z,24.50
2023-04-16T06:29:40.505Z,25.50
2023-04-16T06:30:32.140Z,25.40
2023-04-16T06:31:31.180Z,24.50
2023-04-16T06:32:31.144Z,25.50
2023-04-16T06:33:31.124Z,25.00
2023-04-16T06:34:31.075Z,23.10
2023-04-16T06:35:31.115Z,24.60
2023-04-16T06:36:31.099Z,23.90
2023-04-16T06:37:31.040Z,24.70
2023-04-16T06:38:31.057Z,25.10
2023-04-16T06:39:31.053Z,25.30
2023-04-16T06:40:31.006Z,25.70
2023-04-16T06:41:31.019Z,25.90
2023-04-16T06:42:30.992Z,24.60
2023-04-16T06:43:30.977Z,25.50
2023-04-16T06:44:30.961Z,24.70
2023-04-16T06:45:31.019Z,25.00
2023-04-16T06:46:30.983Z,25.00
2023-04-16T06:47:31.015Z,23.40
2023-04-16T06:48:30.930Z,25.20
2023-04-16T06:49:30.970Z,24.60
2023-04-16T06:50:32.760Z,24.90
2023-04-16T06:51:30.887Z,25.20
2023-04-16T06:52:30.877Z,24.70
2023-04-16T06:53:30.917Z,26.00
2023-04-16T06:54:30.868Z,24.40
2023-04-16T06:55:30.845Z,24.50
2023-04-16T06:56:30.836Z,23.70
2023-04-16T06:57:30.892Z,24.30
2023-04-16T06:58:30.815Z,25.00
2023-04-16T06:59:30.809Z,25.10
2023-04-16T07:00:30.796Z,24.50
2023-04-16T07:01:30.877Z,25.30
2023-04-16T07:02:30.943Z,24.40
2023-04-16T07:03:31.002Z,25.40
2023-04-16T07:04:30.807Z,23.00
2023-04-16T07:05:30.744Z,23.90
2023-04-16T07:06:30.742Z,23.20
2023-04-16T07:07:30.725Z,24.20
2023-04-16T07:08:30.709Z,24.00
2023-04-16T07:09:30.689Z,25.10
2023-04-16T07:10:30.724Z,24.10
2023-04-16T07:11:30.678Z,22.60
2023-04-16T07:12:30.680Z,24.80
2023-04-16T07:13:30.687Z,23.60
2023-04-16T07:14:30.641Z,24.60
2023-04-16T07:15:30.643Z,24.40
2023-04-16T07:16:30.688Z,23.90
2023-04-16T07:17:30.662Z,23.20
2023-04-16T07:18:30.604Z,23.20
2023-04-16T07:19:30.614Z,24.50
2023-04-16T07:20:30.620Z,24.60
2023-04-16T07:21:30.625Z,23.40
2023-04-16T07:22:30.571Z,23.20
2023-04-16T07:23:30.546Z,24.60
2023-04-16T07:24:30.533Z,23.00
2023-04-16T07:25:30.549Z,23.20
2023-04-16T07:26:30.532Z,23.20
2023-04-16T07:27:30.560Z,22.90
2023-04-16T07:28:30.487Z,22.30
2023-04-16T07:29:30.527Z,22.40
2023-04-16T07:30:30.477Z,21.80
2023-04-16T07:31:30.501Z,22.70
2023-04-16T07:32:30.467Z,22.50
2023-04-16T07:33:30.443Z,22.40
2023-04-16T07:34:30.456Z,23.00
2023-04-16T07:35:30.459Z,23.00
2023-04-16T07:36:30.396Z,22.80
2023-04-16T07:37:30.390Z,22.50
2023-04-16T07:38:30.380Z,22.30
2023-04-16T07:39:30.433Z,22.60
2023-04-16T07:40:30.384Z,22.40
2023-04-16T07:41:30.398Z,22.70
2023-04-16T07:42:30.336Z,22.80
2023-04-16T07:43:30.332Z,22.80
2023-04-16T07:44:30.326Z,21.80
2023-04-16T07:45:30.339Z,22.20
2023-04-16T07:46:39.325Z,22.20
2023-04-16T07:47:31.364Z,21.20
2023-04-16T07:48:30.343Z,22.20
2023-04-16T07:49:30.266Z,21.70
2023-04-16T07:50:30.303Z,21.30
2023-04-16T07:51:30.278Z,21.50
2023-04-16T07:52:30.310Z,22.40
2023-04-16T07:53:30.216Z,20.90
2023-04-16T07:54:30.209Z,22.20
2023-04-16T07:55:30.198Z,20.40
2023-04-16T07:56:30.195Z,21.80
2023-04-16T07:57:30.277Z,21.70
2023-04-16T07:58:30.170Z,20.50
2023-04-16T07:59:30.465Z,21.80
2023-04-16T08:00:30.164Z,21.90
2023-04-16T08:01:30.234Z,21.80
2023-04-16T08:02:30.333Z,21.80
2023-04-16T08:03:30.225Z,21.00
2023-04-16T08:04:30.297Z,21.10
2023-04-16T08:05:30.125Z,20.40
2023-04-16T08:06:30.082Z,21.20
2023-04-16T08:07:30.436Z,20.80
2023-04-16T08:08:30.071Z,21.30
2023-04-16T08:09:30.055Z,20.60
2023-04-16T08:10:30.059Z,21.10
2023-04-16T08:11:30.027Z,20.50
2023-04-16T08:12:30.024Z,22.30
2023-04-16T08:13:31.755Z,21.30
2023-04-16T08:14:30.037Z,21.10
2023-04-16T08:15:30.074Z,20.90
2023-04-16T08:16:30.051Z,21.20
2023-04-16T08:17:30.099Z,20.70
2023-04-16T08:18:29.965Z,20.10
2023-04-16T08:19:29.942Z,21.60
2023-04-16T08:20:29.956Z,20.90
2023-04-16T08:21:29.947Z,20.30
2023-04-16T08:22:29.962Z,21.10
2023-04-16T08:23:29.982Z,19.30
2023-04-16T08:24:29.899Z,20.40
2023-04-16T08:25:29.885Z,19.90
2023-04-16T08:26:29.863Z,20.60
2023-04-16T08:27:29.869Z,20.70
2023-04-16T08:28:29.939Z,19.00
2023-04-16T08:29:29.833Z,19.90
2023-04-16T08:30:29.835Z,18.30
2023-04-16T08:31:29.845Z,19.50
2023-04-16T08:32:29.833Z,20.20
2023-04-16T08:33:29.826Z,19.80
2023-04-16T08:34:29.825Z,20.40
2023-04-16T08:35:29.858Z,20.50
2023-04-16T08:36:29.755Z,18.80
2023-04-16T08:37:29.749Z,20.90
2023-04-16T08:38:29.831Z,19.90
2023-04-16T08:39:29.733Z,20.20
2023-04-16T08:40:29.716Z,17.20
2023-04-16T08:41:29.775Z,19.30
2023-04-16T08:42:29.695Z,17.70
2023-04-16T08:43:29.735Z,18.50
2023-04-16T08:44:29.677Z,19.60
2023-04-16T08:45:29.677Z,19.90
2023-04-16T08:46:29.672Z,19.60
2023-04-16T08:47:29.700Z,19.80
2023-04-16T08:48:29.638Z,19.80
2023-04-16T08:49:29.607Z,19.30
2023-04-16T08:50:29.646Z,19.00
2023-04-16T08:51:29.666Z,19.90
2023-04-16T08:52:29.578Z,18.60
2023-04-16T08:53:29.600Z,18.60
2023-04-16T08:54:29.608Z,19.90
2023-04-16T08:55:29.552Z,19.60
2023-04-16T08:56:29.535Z,20.30
2023-04-16T08:57:29.533Z,19.50
2023-04-16T08:58:29.527Z,18.90
2023-04-16T08:59:29.513Z,18.60
2023-04-16T09:00:29.550Z,19.30
2023-04-16T09:01:29.623Z,19.00
2023-04-16T09:02:29.691Z,19.70
2023-04-16T09:03:29.595Z,20.10
2023-04-16T09:04:29.848Z,20.50
2023-04-16T09:05:29.451Z,19.90
2023-04-16T09:06:29.431Z,19.40
2023-04-16T09:07:29.482Z,20.20
2023-04-16T09:08:29.402Z,20.50
2023-04-16T09:09:29.410Z,20.80
2023-04-16T09:10:29.520Z,19.40
2023-04-16T09:11:29.373Z,20.10
2023-04-16T09:12:29.365Z,19.90
2023-04-16T09:13:29.354Z,21.00
2023-04-16T09:14:29.349Z,19.80
2023-04-16T09:15:29.336Z,21.20
2023-04-16T09:16:29.381Z,20.80
2023-04-16T09:17:29.486Z,19.00
2023-04-16T09:18:29.313Z,21.20
2023-04-16T09:19:29.296Z,20.50
2023-04-16T09:20:29.291Z,20.10
2023-04-16T09:21:29.271Z,20.80
2023-04-16T09:22:29.376Z,22.10
2023-04-16T09:23:29.287Z,19.40
2023-04-16T09:24:29.234Z,20.40
2023-04-16T09:25:29.234Z,20.10
2023-04-16T09:26:29.307Z,20.80
2023-04-16T09:27:29.209Z,21.10
2023-04-16T09:28:29.223Z,20.80
2023-04-16T09:29:29.181Z,22.00
2023-04-16T09:30:29.175Z,20.30
2023-04-16T09:31:29.178Z,20.60
2023-04-16T09:32:29.191Z,19.60
2023-04-16T09:33:29.236Z,19.90
2023-04-16T09:34:29.130Z,19.20
2023-04-16T09:35:29.119Z,21.40
2023-04-16T09:36:30.882Z,21.60
2023-04-16T09:37:29.122Z,20.70
2023-04-16T09:38:29.081Z,20.40
2023-04-16T09:39:29.093Z,20.70
2023-04-16T09:40:29.057Z,21.90
2023-04-16T09:41:29.044Z,20.30
2023-04-16T09:42:29.071Z,20.50
2023-04-16T09:43:29.023Z,19.80
2023-04-16T09:44:29.022Z,20.90
2023-04-16T09:45:29.033Z,19.30
2023-04-16T09:46:29.021Z,20.70
2023-04-16T09:47:29.029Z,20.80
2023-04-16T09:48:29.765Z,19.80
2023-04-16T09:49:28.970Z,20.50
2023-04-16T09:50:28.955Z,20.40
2023-04-16T09:51:28.941Z,19.50
2023-04-16T09:52:28.922Z,19.80
2023-04-16T09:53:30.780Z,19.80
2023-04-16T09:54:28.908Z,20.00
2023-04-16T09:55:28.907Z,20.00
2023-04-16T09:56:28.897Z,20.20
2023-04-16T09:57:28.884Z,19.50
2023-04-16T09:58:28.888Z,20.30
2023-04-16T09:59:28.867Z,18.90
2023-04-16T10:00:28.843Z,20.00
2023-04-16T10:01:28.856Z,19.60
2023-04-16T10:02:28.882Z,19.50
2023-04-16T10:03:29.100Z,19.60
2023-04-16T10:04:28.811Z,19.40
2023-04-16T10:05:28.797Z,19.10
2023-04-16T10:06:28.807Z,19.80
2023-04-16T10:07:28.777Z,20.20
2023-04-16T10:08:28.813Z,20.00
2023-04-16T10:09:28.754Z,18.50
2023-04-16T10:10:28.734Z,19.60
2023-04-16T10:11:28.791Z,19.30
2023-04-16T10:12:28.752Z,19.50
2023-04-16T10:13:28.760Z,18.60
2023-04-16T10:14:28.738Z,18.80
2023-04-16T10:15:28.691Z,18.80
2023-04-16T10:16:28.683Z,19.20
2023-04-16T10:17:28.707Z,18.60
2023-04-16T10:18:28.638Z,18.30
2023-04-16T10:19:28.668Z,17.50
2023-04-16T10:20:28.639Z,19.60
2023-04-16T10:21:28.634Z,18.90
2023-04-16T10:22:28.613Z,18.60
2023-04-16T10:23:28.606Z,18.20
2023-04-16T10:24:28.588Z,19.10
2023-04-16T10:25:28.664Z,18.30
2023-04-16T10:26:28.624Z,18.60
2023-04-16T10:27:28.629Z,18.50
2023-04-16T10:28:28.566Z,19.20
2023-04-16T10:29:28.528Z,17.70
2023-04-16T10:30:28.576Z,18.20
2023-04-16T10:31:28.560Z,17.80
2023-04-16T10:32:28.718Z,17.90
2023-04-16T10:33:28.512Z,18.20
2023-04-16T10:34:28.529Z,17.70
2023-04-16T10:35:28.464Z,18.40
2023-04-16T10:36:28.451Z,18.70
2023-04-16T10:37:28.452Z,18.30
2023-04-16T10:38:28.473Z,17.90
2023-04-16T10:39:28.428Z,18.30
2023-04-16T10:40:28.463Z,18.30
2023-04-16T10:41:28.421Z,18.70
2023-04-16T10:42:28.401Z,17.50
2023-04-16T10:43:28.380Z,17.70
2023-04-16T10:44:28.410Z,18.40
2023-04-16T10:45:28.361Z,17.20
2023-04-16T10:46:28.402Z,17.60
2023-04-16T10:47:28.375Z,17.60
2023-04-16T10:48:33.141Z,17.80
2023-04-16T10:49:29.373Z,18.20
2023-04-16T10:50:28.311Z,17.20
2023-04-16T10:51:28.301Z,17.30
2023-04-16T10:52:28.300Z,18.10
2023-04-16T10:53:28.273Z,18.60
2023-04-16T10:54:28.269Z,17.60
2023-04-16T10:55:28.280Z,18.00
2023-04-16T10:56:28.245Z,18.20
2023-04-16T10:57:28.211Z,17.90
2023-04-16T10:58:28.245Z,18.90
2023-04-16T10:59:28.286Z,19.10
2023-04-16T11:00:28.191Z,18.70
2023-04-16T11:01:28.195Z,17.90
2023-04-16T11:02:28.402Z,18.10
2023-04-16T11:03:28.328Z,18.60
2023-04-16T11:04:30.411Z,18.30
2023-04-16T11:05:28.150Z,18.10
2023-04-16T11:06:28.147Z,17.60
2023-04-16T11:07:32.363Z,18.10
2023-04-16T11:08:28.116Z,16.90
2023-04-16T11:09:28.095Z,17.90
2023-04-16T11:10:28.148Z,17.10
2023-04-16T11:11:28.066Z,18.40
2023-04-16T11:12:28.071Z,17.00
2023-04-16T11:13:28.046Z,17.30
2023-04-16T11:14:28.265Z,17.00
2023-04-16T11:15:28.040Z,16.50
2023-04-16T11:16:28.106Z,17.00
2023-04-16T11:17:28.074Z,16.30
2023-04-16T11:18:27.995Z,17.40
2023-04-16T11:19:28.036Z,17.50
2023-04-16T11:20:30.043Z,17.80
2023-04-16T11:21:28.004Z,17.30
2023-04-16T11:22:27.959Z,17.90
2023-04-16T11:23:27.991Z,17.10
2023-04-16T11:24:28.012Z,17.70
2023-04-16T11:25:28.056Z,18.70
2023-04-16T11:26:27.937Z,17.40
2023-04-16T11:27:27.966Z,16.80
2023-04-16T11:28:27.892Z,17.40
2023-04-16T11:29:27.885Z,17.30
2023-04-16T11:30:27.863Z,16.00
2023-04-16T11:31:27.939Z,17.10
2023-04-16T11:32:27.929Z,17.40
2023-04-16T11:33:27.828Z,17.20
2023-04-16T11:34:27.834Z,18.80
2023-04-16T11:35:27.811Z,17.80
2023-04-16T11:36:28.074Z,17.90
2023-04-16T11:37:27.817Z,17.40
2023-04-16T11:38:27.805Z,17.60
2023-04-16T11:39:27.769Z,16.80
2023-04-16T11:40:27.814Z,16.70
2023-04-16T11:41:27.773Z,16.50
2023-04-16T11:42:27.780Z,18.10
2023-04-16T11:43:27.722Z,16.70
2023-04-16T11:44:27.749Z,16.20
2023-04-16T11:45:27.707Z,17.10
2023-04-16T11:46:28.073Z,16.20
2023-04-16T11:47:27.888Z,16.60
2023-04-16T11:48:27.780Z,16.20
2023-04-16T11:49:27.687Z,15.90
2023-04-16T11:50:27.804Z,16.20
2023-04-16T11:51:27.659Z,15.70
2023-04-16T11:52:27.650Z,16.80
2023-04-16T11:53:27.614Z,16.70
2023-04-16T11:54:27.638Z,16.00
2023-04-16T11:55:27.640Z,15.70
2023-04-16T11:56:27.590Z,16.70
2023-04-16T11:57:27.589Z,16.30
2023-04-16T11:58:27.571Z,16.40
2023-04-16T11:59:27.554Z,15.30
2023-04-16T12:00:27.578Z,15.70
2023-04-16T12:01:27.527Z,14.80
2023-04-16T12:02:27.690Z,14.10
2023-04-16T12:03:27.702Z,14.90
2023-04-16T12:04:27.575Z,13.90
2023-04-16T12:05:27.531Z,14.10
2023-04-16T12:06:27.526Z,15.40
2023-04-16T12:07:27.484Z,15.70
2023-04-16T12:08:27.531Z,14.40
2023-04-16T12:09:28.013Z,14.90
2023-04-16T12:10:27.480Z,14.30
2023-04-16T12:11:27.466Z,12.40
2023-04-16T12:12:27.671Z,13.60
2023-04-16T12:13:27.424Z,13.70
2023-04-16T12:14:27.404Z,14.10
2023-04-16T12:15:29.503Z,13.60
2023-04-16T12:16:27.448Z,13.90
2023-04-16T12:17:27.437Z,13.90
2023-04-16T12:18:27.434Z,13.90
2023-04-16T12:19:27.350Z,13.50
2023-04-16T12:20:27.418Z,14.00
2023-04-16T12:21:27.341Z,13.70
2023-04-16T12:22:27.321Z,13.90
2023-04-16T12:23:27.319Z,12.90
2023-04-16T12:24:27.329Z,14.30
2023-04-16T12:25:27.285Z,13.60
2023-04-16T12:26:27.348Z,13.60
2023-04-16T12:27:27.309Z,13.30
2023-04-16T12:28:27.331Z,13.80
2023-04-16T12:29:27.260Z,14.50
2023-04-16T12:30:27.263Z,12.40
2023-04-16T12:31:27.317Z,13.40
2023-04-16T12:32:27.244Z,13.40
2023-04-16T12:33:27.255Z,13.40
2023-04-16T12:34:34.202Z,13.80
2023-04-16T12:35:28.175Z,14.00
2023-04-16T12:36:27.293Z,13.70
2023-04-16T12:37:27.226Z,13.50
2023-04-16T12:38:27.193Z,13.50
2023-04-16T12:39:27.162Z,13.40
2023-04-16T12:40:27.181Z,13.40
2023-04-16T12:41:27.140Z,13.10
2023-04-16T12:42:27.108Z,13.70
2023-04-16T12:43:27.267Z,13.80
2023-04-16T12:44:27.103Z,13.80
2023-04-16T12:45:27.084Z,13.70
2023-04-16T12:46:27.152Z,13.50
2023-04-16T12:47:27.107Z,13.80
2023-04-16T12:48:27.035Z,13.70
2023-04-16T12:49:29.157Z,13.20
2023-04-16T12:50:27.076Z,13.70
2023-04-16T12:51:27.142Z,14.10
2023-04-16T12:52:26.996Z,13.60